Time;durP1;ratioP1;P1;durP2;ratioP2;P2;SDS_P1;SDS_P2;PMS_P1;PMS_P2;Temp;Humidity;BMP_temperature;BMP_pressure;BME280_temperature;BME280_humidity;BME280_pressure;Samples;Min_cycle;Max_cycle;Signal;HPM_P1;HPM_P2
2022/06/10 00:00:43;;;;;;;1999.90;999.90;;;14.40;99.90;;;;;;4992420;28;20853;-72
2022/06/10 00:03:13;;;;;;;1999.90;999.90;;;14.40;99.90;;;;;;4992545;28;20410;-72
2022/06/10 00:05:41;;;;;;;1999.90;999.90;;;14.40;99.90;;;;;;4992618;28;20504;-72
2022/06/10 00:08:09;;;;;;;1999.90;999.90;;;14.30;99.90;;;;;;4992261;28;20497;-72
2022/06/10 00:10:35;;;;;;;1999.90;999.90;;;14.40;99.90;;;;;;4992405;28;20918;-73
2022/06/10 00:13:02;;;;;;;1999.90;999.90;;;14.50;99.90;;;;;;4992447;28;20425;-72
2022/06/10 00:15:28;;;;;;;1999.90;999.90;;;14.60;99.90;;;;;;4992580;28;20527;-72
2022/06/10 00:17:53;;;;;;;1999.90;999.90;;;14.60;99.90;;;;;;4992173;28;20401;-73
2022/06/10 00:20:22;;;;;;;1999.90;999.90;;;14.70;99.90;;;;;;4992280;28;20210;-72
2022/06/10 00:22:47;;;;;;;1999.90;999.90;;;14.70;99.90;;;;;;4992356;28;20256;-72
2022/06/10 00:25:14;;;;;;;1999.90;999.90;;;14.70;99.90;;;;;;4992335;28;20431;-72
2022/06/10 00:27:39;;;;;;;1999.90;999.90;;;14.70;99.90;;;;;;4993237;28;20171;-73
2022/06/10 00:30:07;;;;;;;1999.90;999.90;;;14.80;99.90;;;;;;4996153;28;20474;-72
2022/06/10 00:32:33;;;;;;;1999.90;999.90;;;14.80;99.90;;;;;;4996266;28;20180;-72
2022/06/10 00:34:59;;;;;;;1999.90;999.90;;;14.90;99.90;;;;;;4996234;28;20418;-72
2022/06/10 00:37:25;;;;;;;1999.90;999.90;;;14.90;99.90;;;;;;4995827;28;20775;-72
2022/06/10 00:39:51;;;;;;;1999.90;999.90;;;15.00;99.90;;;;;;5012268;23;20215;-70
2022/06/10 00:42:16;;;;;;;1999.90;999.90;;;14.90;99.90;;;;;;4995328;28;20421;-70
2022/06/10 00:44:48;;;;;;;1999.90;999.90;;;15.00;99.90;;;;;;4996412;28;20606;-70
2022/06/10 00:47:19;;;;;;;1999.90;999.90;;;14.90;99.90;;;;;;4995899;28;20255;-70
2022/06/10 00:49:51;;;;;;;1999.90;999.90;;;14.90;99.90;;;;;;4996065;28;20406;-70
2022/06/10 00:52:24;;;;;;;1999.90;999.90;;;15.00;99.90;;;;;;4996104;28;20406;-70
2022/06/10 00:54:52;;;;;;;1999.90;999.90;;;15.00;99.90;;;;;;4995935;28;20408;-70
2022/06/10 00:57:19;;;;;;;1999.90;999.90;;;15.00;99.90;;;;;;4995764;28;20404;-70
2022/06/10 00:59:53;;;;;;;1999.90;999.90;;;15.00;99.90;;;;;;4995802;28;20511;-70
2022/06/10 01:02:26;;;;;;;1999.90;999.90;;;15.00;99.90;;;;;;4995921;28;20836;-70
2022/06/10 01:04:54;;;;;;;1999.90;999.90;;;15.00;99.90;;;;;;4995855;28;20407;-70
2022/06/10 01:07:23;;;;;;;1999.90;999.90;;;15.00;99.90;;;;;;4995425;28;20404;-70
2022/06/10 01:09:51;;;;;;;1999.90;999.90;;;15.00;99.90;;;;;;4995586;28;20396;-70
2022/06/10 01:12:48;;;;;;;1999.90;999.90;;;14.90;99.90;;;;;;4995615;28;20417;-70
2022/06/10 01:15:41;;;;;;;1999.90;999.90;;;14.70;99.90;;;;;;4995584;28;20467;-68
2022/06/10 01:18:27;;;;;;;1999.90;999.90;;;14.70;99.90;;;;;;4995459;28;20910;-68
2022/06/10 01:20:55;;;;;;;1999.90;999.90;;;14.60;99.90;;;;;;4995513;28;20447;-67
2022/06/10 01:24:01;;;;;;;1999.90;999.90;;;14.50;99.90;;;;;;4995428;28;20407;-68
2022/06/10 01:29:57;;;;;;;1999.90;999.90;;;14.30;99.90;;;;;;4995336;28;20465;-68
2022/06/10 01:32:37;;;;;;;1999.90;999.90;;;14.30;99.90;;;;;;4995220;28;20499;-68
2022/06/10 01:35:21;;;;;;;1999.90;999.90;;;14.20;99.90;;;;;;4995407;28;20407;-67
2022/06/10 01:37:55;;;;;;;1999.90;999.90;;;14.10;99.90;;;;;;4994965;28;20469;-68
2022/06/10 01:40:52;;;;;;;1999.90;999.90;;;14.10;99.90;;;;;;4993931;28;20493;-67
2022/06/10 01:43:40;;;;;;;1999.90;999.90;;;14.00;99.90;;;;;;4962221;28;20423;-68
2022/06/10 01:46:14;;;;;;;1999.90;999.90;;;13.80;99.90;;;;;;4994871;28;20426;-67
2022/06/10 01:48:58;;;;;;;1999.90;999.90;;;13.80;99.90;;;;;;4995116;28;20404;-68
2022/06/10 01:51:51;;;;;;;1999.90;999.90;;;13.70;99.90;;;;;;4994902;28;20423;-68
2022/06/10 01:54:42;;;;;;;1999.90;999.90;;;13.60;99.90;;;;;;4994891;28;20437;-68
2022/06/10 01:57:15;;;;;;;1999.90;999.90;;;13.50;99.90;;;;;;4991577;28;20419;-68
2022/06/10 01:59:50;;;;;;;1999.90;999.90;;;13.50;99.90;;;;;;4994693;28;20437;-67
2022/06/10 02:02:21;;;;;;;1999.90;999.90;;;13.50;99.90;;;;;;4994794;28;20412;-68
2022/06/10 02:04:54;;;;;;;1999.90;999.90;;;13.50;99.90;;;;;;4994827;28;20484;-67
2022/06/10 02:07:27;;;;;;;1999.90;999.90;;;13.40;99.90;;;;;;4994408;28;20750;-68
2022/06/10 02:10:19;;;;;;;1999.90;999.90;;;13.30;99.90;;;;;;4994636;28;20409;-67
2022/06/10 02:12:51;;;;;;;1999.90;999.90;;;13.20;99.90;;;;;;4994055;28;20501;-68
2022/06/10 02:15:24;;;;;;;1999.90;999.90;;;13.10;99.90;;;;;;4994432;28;20474;-67
2022/06/10 02:17:57;;;;;;;1999.90;999.90;;;13.10;99.90;;;;;;4994014;28;20402;-67
2022/06/10 02:20:26;;;;;;;1999.90;999.90;;;13.10;99.90;;;;;;4994260;28;20461;-67
2022/06/10 02:22:56;;;;;;;1999.90;999.90;;;13.10;99.90;;;;;;4994343;28;20488;-68
2022/06/10 02:25:27;;;;;;;1999.90;999.90;;;13.00;99.90;;;;;;4994216;28;20417;-67
2022/06/10 02:27:59;;;;;;;1999.90;999.90;;;13.00;99.90;;;;;;4994038;28;20418;-68
2022/06/10 02:30:43;;;;;;;1999.90;999.90;;;12.90;99.90;;;;;;4994148;28;20843;-68
2022/06/10 02:33:10;;;;;;;1999.90;999.90;;;12.80;99.90;;;;;;4994210;28;20410;-68
2022/06/10 02:35:56;;;;;;;1999.90;999.90;;;12.70;99.90;;;;;;4994156;28;20436;-67
2022/06/10 02:38:59;;;;;;;1999.90;999.90;;;12.60;99.90;;;;;;4994021;28;20403;-67
2022/06/10 02:41:45;;;;;;;1999.90;999.90;;;12.50;99.90;;;;;;4993764;28;20449;-68
2022/06/10 02:44:29;;;;;;;1999.90;999.90;;;12.50;99.90;;;;;;4993520;28;20413;-67
2022/06/10 02:47:00;;;;;;;1999.90;999.90;;;12.40;99.90;;;;;;4993663;28;20890;-67
2022/06/10 02:49:27;;;;;;;1999.90;999.90;;;12.40;99.90;;;;;;4993976;28;20401;-68
2022/06/10 02:51:53;;;;;;;1999.90;999.90;;;12.40;99.90;;;;;;4993504;28;21158;-68
2022/06/10 02:54:28;;;;;;;1999.90;999.90;;;12.50;99.90;;;;;;4993537;28;20444;-68
2022/06/10 02:56:53;;;;;;;1999.90;999.90;;;12.50;99.90;;;;;;4993346;28;20409;-67
2022/06/10 03:02:04;;;;;;;1999.90;999.90;;;12.60;99.90;;;;;;4993709;28;20472;-68
2022/06/10 03:04:38;;;;;;;1999.90;999.90;;;12.70;99.90;;;;;;4993436;28;20405;-68
2022/06/10 03:07:36;;;;;;;1999.90;999.90;;;12.70;99.90;;;;;;4992977;28;20173;-68
2022/06/10 03:10:16;;;;;;;1999.90;999.90;;;12.70;99.90;;;;;;4993367;28;20950;-68
2022/06/10 03:13:14;;;;;;;1999.90;999.90;;;12.70;99.90;;;;;;4993384;28;20409;-67
2022/06/10 03:15:55;;;;;;;1999.90;999.90;;;12.70;99.90;;;;;;4993245;28;20420;-67
2022/06/10 03:18:52;;;;;;;1999.90;999.90;;;12.60;99.90;;;;;;4993126;28;20433;-67
2022/06/10 03:21:49;;;;;;;1999.90;999.90;;;12.60;99.90;;;;;;4993252;28;20434;-67
2022/06/10 03:24:43;;;;;;;1999.90;999.90;;;12.50;99.90;;;;;;4992661;28;20525;-67
2022/06/10 03:27:38;;;;;;;1999.90;999.90;;;12.50;99.90;;;;;;4992835;28;20794;-67
2022/06/10 03:30:12;;;;;;;1999.90;999.90;;;12.50;99.90;;;;;;4992970;28;20437;-68
2022/06/10 03:33:01;;;;;;;1999.90;999.90;;;12.50;99.90;;;;;;4993041;28;20402;-67
2022/06/10 03:36:06;;;;;;;1999.90;999.90;;;12.50;99.90;;;;;;4993039;28;20401;-67
2022/06/10 03:38:37;;;;;;;1999.90;999.90;;;12.50;99.90;;;;;;4984488;28;20416;-68
2022/06/10 03:41:03;;;;;;;1999.90;999.90;;;12.50;99.90;;;;;;4992858;28;20442;-68
2022/06/10 03:43:34;;;;;;;1999.90;999.90;;;12.50;99.90;;;;;;4992929;28;20817;-67
2022/06/10 03:46:04;;;;;;;1999.90;999.90;;;12.50;99.90;;;;;;4992645;28;20409;-67
2022/06/10 03:48:33;;;;;;;1999.90;999.90;;;12.60;99.90;;;;;;4992781;28;20405;-67
2022/06/10 03:51:00;;;;;;;1999.90;999.90;;;12.60;99.90;;;;;;4992741;28;20425;-67
2022/06/10 03:53:26;;;;;;;1999.90;999.90;;;12.60;99.90;;;;;;4992840;28;20408;-67
2022/06/10 03:55:52;;;;;;;1999.90;999.90;;;12.70;99.90;;;;;;4992704;28;20397;-67
2022/06/10 03:58:18;;;;;;;1999.90;999.90;;;12.70;99.90;;;;;;4992680;28;20412;-68
2022/06/10 04:00:44;;;;;;;1999.90;999.90;;;12.80;99.90;;;;;;4992583;28;20461;-68
2022/06/10 04:03:10;;;;;;;1999.90;999.90;;;12.90;99.90;;;;;;4992200;28;20433;-68
2022/06/10 04:05:37;;;;;;;1999.90;999.90;;;13.00;99.90;;;;;;4992605;28;20406;-68
2022/06/10 04:08:03;;;;;;;1999.90;999.90;;;13.10;99.90;;;;;;4992406;28;20409;-67
2022/06/10 04:10:29;;;;;;;1999.90;999.90;;;13.30;99.90;;;;;;4992516;28;20443;-67
2022/06/10 04:12:55;;;;;;;1999.90;999.90;;;13.40;99.90;;;;;;4992741;28;20416;-68
2022/06/10 04:15:24;;;;;;;1999.90;999.90;;;13.50;99.90;;;;;;4992679;28;20411;-68
2022/06/10 04:17:50;;;;;;;1999.90;999.90;;;13.60;99.90;;;;;;4992180;28;20793;-68
2022/06/10 04:20:26;;;;;;;1999.90;999.90;;;13.70;99.90;;;;;;4992391;28;20461;-68
2022/06/10 04:22:51;;;;;;;1999.90;999.90;;;13.70;99.90;;;;;;4992724;28;20759;-67
2022/06/10 04:25:17;;;;;;;1999.90;999.90;;;13.80;99.90;;;;;;4992580;28;20412;-68
2022/06/10 04:27:43;;;;;;;1999.90;999.90;;;13.90;99.90;;;;;;4992293;28;20175;-68
2022/06/10 04:30:23;;;;;;;1999.90;999.90;;;14.00;99.90;;;;;;4992533;28;20753;-68
2022/06/10 04:32:49;;;;;;;1999.90;999.90;;;14.20;99.90;;;;;;4992387;28;20413;-68
2022/06/10 04:35:14;;;;;;;1999.90;999.90;;;14.30;99.90;;;;;;4992580;28;20417;-68
2022/06/10 04:37:40;;;;;;;1999.90;999.90;;;14.50;99.90;;;;;;4992153;28;20172;-68
2022/06/10 04:40:06;;;;;;;1999.90;999.90;;;14.70;99.90;;;;;;4992108;28;20709;-68
2022/06/10 04:42:32;;;;;;;1999.90;999.90;;;14.80;99.90;;;;;;4992541;28;20404;-68
2022/06/10 04:44:58;;;;;;;1999.90;999.90;;;14.90;99.90;;;;;;4992367;28;20491;-68
2022/06/10 04:47:23;;;;;;;1999.90;999.90;;;15.00;99.90;;;;;;4992140;28;20166;-68
2022/06/10 04:49:49;;;;;;;1999.90;999.90;;;15.20;99.90;;;;;;4992189;28;20191;-68
2022/06/10 04:52:15;;;;;;;1999.90;999.90;;;15.30;99.90;;;;;;4992355;28;20231;-68
2022/06/10 04:54:40;;;;;;;1999.90;999.90;;;15.40;99.90;;;;;;4992365;28;20176;-68
2022/06/10 04:57:06;;;;;;;1999.90;999.90;;;15.50;99.90;;;;;;4992166;28;20177;-68
2022/06/10 04:59:32;;;;;;;1999.90;999.90;;;15.60;99.90;;;;;;4992268;28;20192;-68
2022/06/10 05:01:58;;;;;;;1999.90;999.90;;;15.60;99.90;;;;;;4992271;28;20198;-69
2022/06/10 05:04:23;;;;;;;1999.90;999.90;;;15.60;99.90;;;;;;4992330;28;20703;-68
2022/06/10 05:06:49;;;;;;;1999.90;999.90;;;15.60;99.90;;;;;;4992019;28;20166;-68
2022/06/10 05:09:14;;;;;;;1999.90;999.90;;;15.70;99.90;;;;;;4992217;28;20174;-70
2022/06/10 05:11:40;;;;;;;1999.90;999.90;;;15.70;99.90;;;;;;4992049;28;20660;-70
2022/06/10 05:14:05;;;;;;;1999.90;999.90;;;15.70;99.90;;;;;;4992480;28;20213;-70
2022/06/10 05:16:31;;;;;;;1999.90;999.90;;;15.60;99.90;;;;;;4995426;28;20175;-70
2022/06/10 05:18:57;;;;;;;1999.90;999.90;;;15.60;99.90;;;;;;4995580;28;20213;-70
2022/06/10 05:21:23;;;;;;;1999.90;999.90;;;15.60;99.90;;;;;;4995447;28;20190;-70
2022/06/10 05:23:49;;;;;;;1999.90;999.90;;;15.60;99.90;;;;;;4995791;28;20201;-70
2022/06/10 05:26:16;;;;;;;1999.90;999.90;;;15.60;99.90;;;;;;4995366;28;20414;-70
2022/06/10 05:28:41;;;;;;;1999.90;999.90;;;15.60;99.90;;;;;;4995317;28;20412;-70
2022/06/10 05:31:07;;;;;;;1999.90;999.90;;;15.60;99.90;;;;;;4995171;28;20467;-70
2022/06/10 05:36:20;;;;;;;1999.90;999.90;;;15.70;99.90;;;;;;4995364;28;20772;-70
2022/06/10 05:38:46;;;;;;;1999.90;999.90;;;15.70;99.90;;;;;;4995352;28;20404;-70
2022/06/10 05:43:56;;;;;;;1999.90;999.90;;;15.80;99.90;;;;;;4995294;28;20179;-70
2022/06/10 05:46:21;;;;;;;1999.90;999.90;;;15.80;99.90;;;;;;4994734;28;20402;-70
2022/06/10 05:48:47;;;;;;;1999.90;999.90;;;15.90;99.90;;;;;;4994986;28;20323;-70
2022/06/10 05:51:13;;;;;;;1999.90;999.90;;;15.90;99.90;;;;;;4994889;28;20195;-70
2022/06/10 05:53:38;;;;;;;1999.90;999.90;;;15.90;99.90;;;;;;4994865;28;20172;-68
2022/06/10 05:56:04;;;;;;;1999.90;999.90;;;15.90;99.90;;;;;;4994652;28;20215;-68
2022/06/10 05:58:30;;;;;;;1999.90;999.90;;;16.00;99.90;;;;;;4994819;28;20181;-68
2022/06/10 06:00:56;;;;;;;1999.90;999.90;;;16.00;99.90;;;;;;4994604;28;20277;-68
2022/06/10 06:03:23;;;;;;;1999.90;999.90;;;16.10;99.90;;;;;;4994691;28;20914;-68
2022/06/10 06:05:49;;;;;;;1999.90;999.90;;;16.20;99.90;;;;;;4994539;28;20400;-68
2022/06/10 06:08:16;;;;;;;1999.90;999.90;;;16.30;99.90;;;;;;4994420;28;20418;-68
2022/06/10 06:10:41;;;;;;;1999.90;999.90;;;16.40;99.90;;;;;;4994662;28;20424;-68
2022/06/10 06:13:07;;;;;;;1999.90;999.90;;;16.50;99.90;;;;;;4994606;28;20420;-68
2022/06/10 06:15:32;;;;;;;1999.90;999.90;;;16.60;99.90;;;;;;4994590;28;20230;-68
2022/06/10 06:17:59;;;;;;;1999.90;999.90;;;16.70;99.90;;;;;;4994147;28;20556;-68
2022/06/10 06:20:24;;;;;;;1999.90;999.90;;;16.70;99.90;;;;;;4994219;28;20257;-68
2022/06/10 06:22:50;;;;;;;1999.90;999.90;;;16.80;99.90;;;;;;4994218;28;20405;-68
2022/06/10 06:25:19;;;;;;;1999.90;999.90;;;16.90;99.90;;;;;;4993913;28;20409;-68
2022/06/10 06:27:46;;;;;;;1999.90;999.90;;;17.00;99.90;;;;;;4993860;28;20195;-68
2022/06/10 06:30:30;;;;;;;1999.90;999.90;;;17.10;99.90;;;;;;4994217;28;20864;-68
2022/06/10 06:32:56;;;;;;;1999.90;999.90;;;17.10;99.90;;;;;;4994106;28;20425;-68
2022/06/10 06:35:23;;;;;;;1999.90;999.90;;;17.20;99.90;;;;;;4993993;28;20410;-68
2022/06/10 06:37:49;;;;;;;1999.90;999.90;;;17.30;99.90;;;;;;4993708;28;20467;-68
2022/06/10 06:40:15;;;;;;;1999.90;999.90;;;17.40;99.90;;;;;;5035843;22;20460;-71
2022/06/10 06:42:41;;;;;;;1999.90;999.90;;;17.50;99.90;;;;;;5008087;28;20579;-72
2022/06/10 06:45:08;;;;;;;1999.90;999.90;;;17.60;99.90;;;;;;4993882;28;20481;-72
2022/06/10 06:47:34;;;;;;;1999.90;999.90;;;17.60;99.90;;;;;;4993310;28;20219;-72
2022/06/10 06:49:59;;;;;;;1999.90;999.90;;;17.70;99.90;;;;;;4993767;28;20910;-72
2022/06/10 06:52:25;;;;;;;1999.90;999.90;;;17.70;99.90;;;;;;4993676;28;20191;-72
2022/06/10 06:54:51;;;;;;;1999.90;999.90;;;17.80;99.90;;;;;;4993650;28;20192;-72
2022/06/10 06:57:18;;;;;;;1999.90;999.90;;;17.90;99.90;;;;;;4993275;28;20406;-72
2022/06/10 06:59:44;;;;;;;1999.90;999.90;;;18.10;99.90;;;;;;4993456;28;20208;-72
2022/06/10 07:02:10;;;;;;;1999.90;999.90;;;18.20;99.90;;;;;;4993424;28;20436;-72
2022/06/10 07:04:36;;;;;;;1999.90;999.90;;;18.40;99.90;;;;;;4993779;28;20499;-72
2022/06/10 07:07:03;;;;;;;1999.90;999.90;;;18.50;99.90;;;;;;4993151;28;20934;-72
2022/06/10 07:09:29;;;;;;;1999.90;999.90;;;18.50;99.90;;;;;;4993576;28;20420;-72
2022/06/10 07:11:55;;;;;;;1999.90;999.90;;;18.60;99.90;;;;;;4993280;28;20432;-72
2022/06/10 07:14:22;;;;;;;1999.90;999.90;;;18.80;99.90;;;;;;4993388;28;20414;-71
2022/06/10 07:16:51;;;;;;;1999.90;999.90;;;18.90;99.90;;;;;;4992892;28;20464;-72
2022/06/10 07:19:17;;;;;;;1999.90;999.90;;;19.10;99.90;;;;;;4993223;28;20446;-72
2022/06/10 07:21:43;;;;;;;1999.90;999.90;;;19.30;99.90;;;;;;4993129;28;20955;-72
2022/06/10 07:24:09;;;;;;;1999.90;999.90;;;19.50;99.90;;;;;;4993121;28;20444;-72
2022/06/10 07:26:34;;;;;;;1999.90;999.90;;;19.70;99.90;;;;;;4992974;28;20673;-72
2022/06/10 07:29:00;;;;;;;1999.90;999.90;;;19.90;99.90;;;;;;4993048;28;20661;-72
2022/06/10 07:31:26;;;;;;;1999.90;999.90;;;19.80;99.90;;;;;;4992838;28;20196;-72
2022/06/10 07:33:52;;;;;;;1999.90;999.90;;;19.90;99.90;;;;;;4992988;28;20181;-72
2022/06/10 07:36:17;;;;;;;1999.90;999.90;;;20.00;99.90;;;;;;4992530;28;20171;-72
2022/06/10 07:38:43;;;;;;;1999.90;999.90;;;20.00;99.90;;;;;;4992284;28;20967;-72
2022/06/10 07:43:53;;;;;;;1999.90;999.90;;;20.00;99.90;;;;;;4993141;28;20206;-72
2022/06/10 07:46:21;;;;;;;1999.90;999.90;;;20.10;99.90;;;;;;4992444;28;20416;-72
2022/06/10 07:48:47;;;;;;;1999.90;999.90;;;20.20;99.90;;;;;;4992978;28;20184;-72
2022/06/10 07:51:13;;;;;;;1999.90;999.90;;;20.30;99.90;;;;;;4992765;28;20459;-72
2022/06/10 07:53:41;;;;;;;1999.90;999.90;;;20.40;99.90;;;;;;4992776;28;20418;-72
2022/06/10 07:56:07;;;;;;;1999.90;999.90;;;20.60;99.90;;;;;;4992556;28;20407;-72
2022/06/10 07:58:33;;;;;;;1999.90;999.90;;;20.80;99.90;;;;;;4992652;28;20415;-73
2022/06/10 08:00:59;;;;;;;1999.90;999.90;;;21.00;99.90;;;;;;4992514;28;20422;-72
2022/06/10 08:03:26;;;;;;;1999.90;999.90;;;21.10;99.90;;;;;;4992608;28;20518;-72
2022/06/10 08:05:52;;;;;;;1999.90;999.90;;;21.20;99.90;;;;;;4992506;28;20408;-72
2022/06/10 08:08:20;;;;;;;1999.90;999.90;;;21.40;99.90;;;;;;4992460;28;20414;-73
2022/06/10 08:10:46;;;;;;;1999.90;999.90;;;21.40;99.90;;;;;;4992612;28;20843;-73
2022/06/10 08:13:12;;;;;;;1999.90;999.90;;;21.60;99.90;;;;;;4992486;28;20428;-73
2022/06/10 08:15:39;;;;;;;1999.90;999.90;;;21.70;99.90;;;;;;4992609;28;20506;-73
2022/06/10 08:18:05;;;;;;;1999.90;999.90;;;21.80;99.90;;;;;;4992248;28;20410;-72
2022/06/10 08:23:23;;;;;;;1999.90;999.90;;;21.90;99.90;;;;;;4992685;28;20452;-72
2022/06/10 08:25:49;;;;;;;1999.90;999.90;;;21.80;99.90;;;;;;4992393;28;20432;-72
2022/06/10 08:28:15;;;;;;;1999.90;999.90;;;21.70;99.90;;;;;;4992161;28;20404;-72
2022/06/10 08:30:41;;;;;;;1999.90;999.90;;;21.60;99.90;;;;;;4992367;28;20411;-73
2022/06/10 08:33:07;;;;;;;1999.90;999.90;;;21.50;99.90;;;;;;4992342;28;20919;-73
2022/06/10 08:35:34;;;;;;;1999.90;999.90;;;21.40;99.90;;;;;;4992292;28;20635;-73
2022/06/10 08:38:02;;;;;;;1999.90;999.90;;;21.30;99.90;;;;;;4992086;28;20410;-73
2022/06/10 08:40:42;;;;;;;1999.90;999.90;;;21.10;99.90;;;;;;4991971;28;20471;-73
2022/06/10 08:43:43;;;;;;;1999.90;999.90;;;20.80;99.90;;;;;;4992349;28;20928;-73
2022/06/10 08:46:29;;;;;;;1999.90;999.90;;;20.70;99.90;;;;;;4983903;28;20846;-73
2022/06/10 08:49:12;;;;;;;1999.90;999.90;;;20.40;99.90;;;;;;4993811;28;20432;-72
2022/06/10 08:51:58;;;;;;;1999.90;999.90;;;20.10;99.90;;;;;;4995989;28;20524;-73
2022/06/10 08:54:48;;;;;;;1999.90;999.90;;;19.90;99.90;;;;;;4995952;28;20465;-72
2022/06/10 08:57:40;;;;;;;1999.90;999.90;;;20.00;99.90;;;;;;4965060;28;20428;-72
2022/06/10 09:00:24;;;;;;;1999.90;999.90;;;20.20;99.90;;;;;;4989373;28;20466;-72
2022/06/10 09:02:57;;;;;;;1999.90;999.90;;;20.30;99.90;;;;;;4995828;28;20506;-73
2022/06/10 09:05:23;;;;;;;1999.90;999.90;;;20.40;99.90;;;;;;4995767;28;20520;-72
2022/06/10 09:07:56;;;;;;;1999.90;999.90;;;20.50;99.90;;;;;;4995418;28;20491;-72
2022/06/10 09:10:57;;;;;;;1999.90;999.90;;;20.60;99.90;;;;;;4995780;28;20198;-72
2022/06/10 09:13:57;;;;;;;1999.90;999.90;;;20.70;99.90;;;;;;4962610;28;20417;-72
2022/06/10 09:16:38;;;;;;;1999.90;999.90;;;20.90;99.90;;;;;;4995346;28;20774;-72
2022/06/10 09:19:38;;;;;;;1999.90;999.90;;;20.90;99.90;;;;;;4995427;28;20448;-72
2022/06/10 09:22:22;;;;;;;1999.90;999.90;;;20.90;99.90;;;;;;4995323;28;20392;-72
2022/06/10 09:24:48;;;;;;;1999.90;999.90;;;20.80;99.90;;;;;;4995480;28;20405;-72
2022/06/10 09:27:32;;;;;;;1999.90;999.90;;;20.60;99.90;;;;;;4995105;28;20425;-72
2022/06/10 09:30:03;;;;;;;1999.90;999.90;;;20.50;99.90;;;;;;4995263;28;20416;-72
2022/06/10 09:32:51;;;;;;;1999.90;999.90;;;20.60;99.90;;;;;;4995092;28;20428;-72
2022/06/10 09:35:24;;;;;;;1999.90;999.90;;;20.70;99.90;;;;;;4995403;28;20425;-72
2022/06/10 09:37:59;;;;;;;1999.90;999.90;;;20.70;99.90;;;;;;4994852;28;20405;-72
2022/06/10 09:40:40;;;;;;;1999.90;999.90;;;20.80;99.90;;;;;;4994722;28;20527;-72
2022/06/10 09:43:27;;;;;;;1999.90;999.90;;;20.90;99.90;;;;;;4995108;28;20424;-72
2022/06/10 09:46:14;;;;;;;1999.90;999.90;;;21.10;99.90;;;;;;4994912;28;20412;-72
2022/06/10 09:48:43;;;;;;;1999.90;999.90;;;21.20;99.90;;;;;;4995020;28;20376;-72
2022/06/10 09:51:18;;;;;;;1999.90;999.90;;;21.30;99.90;;;;;;4994704;28;20964;-72
2022/06/10 09:53:45;;;;;;;1999.90;999.90;;;21.50;99.90;;;;;;4994860;28;20427;-72
2022/06/10 09:56:29;;;;;;;1999.90;999.90;;;21.50;99.90;;;;;;4994641;28;20418;-72
2022/06/10 09:59:48;;;;;;;1999.90;999.90;;;21.60;99.90;;;;;;4994570;28;20408;-72
2022/06/10 10:02:47;;;;;;;1999.90;999.90;;;21.80;99.90;;;;;;4981347;28;20433;-72
2022/06/10 10:05:44;;;;;;;1999.90;999.90;;;21.90;99.90;;;;;;4994596;28;20416;-72
2022/06/10 10:08:22;;;;;;;1999.90;999.90;;;22.00;99.90;;;;;;4994372;28;20414;-72
2022/06/10 10:10:59;;;;;;;1999.90;999.90;;;22.10;99.90;;;;;;4994508;28;21025;-73
2022/06/10 10:13:36;;;;;;;1999.90;999.90;;;22.20;99.90;;;;;;4994485;28;20418;-73
2022/06/10 10:16:30;;;;;;;1999.90;999.90;;;22.30;99.90;;;;;;4994069;28;20410;-72
2022/06/10 10:19:16;;;;;;;1999.90;999.90;;;22.50;99.90;;;;;;4994282;28;20417;-72
2022/06/10 10:22:00;;;;;;;1999.90;999.90;;;22.70;99.90;;;;;;4994258;28;20466;-72
2022/06/10 10:24:27;;;;;;;1999.90;999.90;;;23.10;99.90;;;;;;4994150;28;20407;-72
2022/06/10 10:26:54;;;;;;;1999.90;999.90;;;23.20;99.90;;;;;;4993983;28;20418;-72
2022/06/10 10:29:26;;;;;;;1999.90;999.90;;;23.20;99.90;;;;;;4994170;28;20415;-72
2022/06/10 10:32:10;;;;;;;1999.90;999.90;;;23.30;99.90;;;;;;4994148;28;20426;-72
2022/06/10 10:34:38;;;;;;;1999.90;999.90;;;23.50;99.90;;;;;;4994022;28;20470;-73
2022/06/10 10:37:18;;;;;;;1999.90;999.90;;;23.80;99.90;;;;;;4993751;28;20390;-73
2022/06/10 10:39:50;;;;;;;1999.90;999.90;;;23.90;99.90;;;;;;4993888;28;20450;-73
2022/06/10 10:42:23;;;;;;;1999.90;999.90;;;24.10;99.90;;;;;;4993711;28;20931;-73
2022/06/10 10:45:18;;;;;;;1999.90;999.90;;;24.20;99.90;;;;;;4993699;28;20387;-73
2022/06/10 10:47:53;;;;;;;1999.90;999.90;;;24.20;99.90;;;;;;4993333;28;20790;-73
2022/06/10 10:50:24;;;;;;;1999.90;999.90;;;24.40;99.90;;;;;;4993564;28;20452;-73
2022/06/10 10:52:50;;;;;;;1999.90;999.90;;;24.30;99.90;;;;;;4993831;28;20581;-73
2022/06/10 10:55:33;;;;;;;1999.90;999.90;;;24.10;99.90;;;;;;4993776;28;20491;-73
2022/06/10 10:58:17;;;;;;;1999.90;999.90;;;24.20;99.90;;;;;;4993355;28;20748;-73
2022/06/10 11:00:44;;;;;;;1999.90;999.90;;;24.30;99.90;;;;;;4993473;28;20503;-73
2022/06/10 11:03:52;;;;;;;1999.90;999.90;;;24.40;99.90;;;;;;4993557;28;20401;-72
2022/06/10 11:06:26;;;;;;;1999.90;999.90;;;24.70;99.90;;;;;;4932831;29;20417;-72
2022/06/10 11:09:13;;;;;;;1999.90;999.90;;;24.80;99.90;;;;;;4933310;29;20391;-72
2022/06/10 11:11:41;;;;;;;1999.90;999.90;;;24.90;99.90;;;;;;4974886;28;20418;-72
2022/06/10 11:14:25;;;;;;;1999.90;999.90;;;25.00;99.90;;;;;;4993413;28;20379;-72
2022/06/10 11:17:12;;;;;;;1999.90;999.90;;;25.10;99.90;;;;;;4993005;28;20915;-72
2022/06/10 11:19:37;;;;;;;1999.90;999.90;;;25.10;99.90;;;;;;4993234;28;20921;-72
2022/06/10 11:22:21;;;;;;;1999.90;999.90;;;25.10;99.90;;;;;;4993139;28;20440;-72
2022/06/10 11:24:51;;;;;;;1999.90;999.90;;;25.20;99.90;;;;;;4993099;28;20236;-72
2022/06/10 11:27:29;;;;;;;1999.90;999.90;;;25.30;99.90;;;;;;4992851;28;20384;-72
2022/06/10 11:30:10;;;;;;;1999.90;999.90;;;25.30;99.90;;;;;;4993079;28;20495;-73
2022/06/10 11:32:47;;;;;;;1999.90;999.90;;;25.30;99.90;;;;;;4993104;28;20409;-73
2022/06/10 11:35:36;;;;;;;1999.90;999.90;;;25.50;99.90;;;;;;4993007;28;20495;-73
2022/06/10 11:38:15;;;;;;;1999.90;999.90;;;25.70;99.90;;;;;;4992734;28;20409;-73
2022/06/10 11:40:51;;;;;;;1999.90;999.90;;;25.90;99.90;;;;;;4992551;28;20455;-73
2022/06/10 11:43:23;;;;;;;1999.90;999.90;;;26.00;99.90;;;;;;4992938;28;20432;-73
2022/06/10 11:45:54;;;;;;;1999.90;999.90;;;26.20;99.90;;;;;;4992742;28;20383;-74
2022/06/10 11:48:32;;;;;;;1999.90;999.90;;;26.40;99.90;;;;;;4992749;28;20452;-74
2022/06/10 11:51:23;;;;;;;1999.90;999.90;;;26.50;99.90;;;;;;4992787;28;20844;-73
2022/06/10 11:54:12;;;;;;;1999.90;999.90;;;26.50;99.90;;;;;;4992478;28;20400;-74
2022/06/10 11:59:50;;;;;;;1999.90;999.90;;;26.20;99.90;;;;;;4992847;28;20495;-73
2022/06/10 12:02:31;;;;;;;1999.90;999.90;;;26.30;99.90;;;;;;4992558;28;20403;-73
2022/06/10 12:05:23;;;;;;;1999.90;999.90;;;26.40;99.90;;;;;;4992720;28;20474;-73
2022/06/10 12:08:13;;;;;;;1999.90;999.90;;;26.10;99.90;;;;;;4988737;28;20780;-73
2022/06/10 12:10:49;;;;;;;1999.90;999.90;;;26.00;99.90;;;;;;4992373;28;20425;-73
2022/06/10 12:13:15;;;;;;;1999.90;999.90;;;26.20;99.90;;;;;;4992728;28;20798;-73
2022/06/10 12:15:49;;;;;;;1999.90;999.90;;;26.30;99.90;;;;;;4992553;28;20439;-73
2022/06/10 12:18:16;;;;;;;1999.90;999.90;;;26.20;99.90;;;;;;4992378;28;20390;-73
2022/06/10 12:20:54;;;;;;;1999.90;999.90;;;26.00;99.90;;;;;;4992486;28;20464;-73
2022/06/10 12:23:32;;;;;;;1999.90;999.90;;;26.20;99.90;;;;;;4993119;28;20400;-73
2022/06/10 12:26:19;;;;;;;1999.90;999.90;;;26.30;99.90;;;;;;4996364;28;20400;-73
2022/06/10 12:29:04;;;;;;;1999.90;999.90;;;26.30;99.90;;;;;;4996393;28;20383;-73
2022/06/10 12:31:37;;;;;;;1999.90;999.90;;;26.50;99.90;;;;;;4996251;28;20409;-73
2022/06/10 12:34:34;;;;;;;1999.90;999.90;;;26.90;99.90;;;;;;4996429;28;20401;-73
2022/06/10 12:37:04;;;;;;;1999.90;999.90;;;27.30;99.90;;;;;;4996045;28;20413;-73
2022/06/10 12:40:11;;;;;;;1999.90;999.90;;;27.80;99.90;;;;;;4996111;28;20467;-73
2022/06/10 12:42:52;;;;;;;1999.90;999.90;;;28.00;98.10;;;;;;4995933;28;20802;-74
2022/06/10 12:45:30;;;;;;;1999.90;999.90;;;28.10;91.60;;;;;;4996219;28;20459;-74
2022/06/10 12:47:59;;;;;;;1999.90;999.90;;;28.30;92.10;;;;;;4995840;28;20773;-74
2022/06/10 12:50:29;;;;;;;1999.90;999.90;;;28.40;90.30;;;;;;4995903;28;20783;-72